Engelberg, Switzerland
Current Conditions -  °F | °C
As of 4:50 PM on Tuesday 21 Oct 2014 (Local Time) from LSMA Reporting Station
Broken Clouds Broken Clouds  
Wind Chill: 64°   Ceiling: 9800
Heat Index: 64°   Visibility: 6mi
Dew Point: 52°   Wind: 12mph
Humidity: 64%   Direction: 190°S
Pressure: 29.85"   Gusts: NA
Location:  46.82°N, 8.4°E
Report Text: LSMA 211450Z 19010KT 160V220 9999 FEW040 BKN098 18/11 Q1011 RMK WHT
Loading
Personal Weather Stations






























Interactive Weather Map
Tropical Storm Tracking
New forecast layout! Learn more

10-Day Weather Forecast

Advertisements
Track Severe Weather on mobile